createdAt,value
2018-09-22T00:00:54.978Z,11.56
2018-09-22T00:01:54.947Z,11.56
2018-09-22T00:02:54.920Z,11.64
2018-09-22T00:03:54.890Z,11.64
2018-09-22T00:04:54.861Z,11.59
2018-09-22T00:05:54.829Z,11.57
2018-09-22T00:06:54.801Z,11.54
2018-09-22T00:07:54.772Z,11.52
2018-09-22T00:08:54.744Z,11.61
2018-09-22T00:09:54.713Z,11.46
2018-09-22T00:10:54.683Z,11.47
2018-09-22T00:11:54.653Z,11.52
2018-09-22T00:12:54.623Z,11.49
2018-09-22T00:13:54.593Z,11.54
2018-09-22T00:14:54.568Z,11.47
2018-09-22T00:15:54.535Z,11.52
2018-09-22T00:16:54.508Z,11.49
2018-09-22T00:17:54.478Z,11.47
2018-09-22T00:18:54.447Z,11.41
2018-09-22T00:19:54.417Z,11.46
2018-09-22T00:20:54.385Z,11.32
2018-09-22T00:21:54.436Z,11.38
2018-09-22T00:22:54.331Z,11.34
2018-09-22T00:23:54.299Z,11.35
2018-09-22T00:24:54.269Z,11.27
2018-09-22T00:25:54.241Z,11.27
2018-09-22T00:26:54.208Z,11.27
2018-09-22T00:27:54.180Z,11.31
2018-09-22T00:28:54.148Z,11.32
2018-09-22T00:29:54.120Z,11.29
2018-09-22T00:30:54.090Z,11.28
2018-09-22T00:31:54.061Z,11.32
2018-09-22T00:32:54.030Z,11.31
2018-09-22T00:33:54.000Z,11.27
2018-09-22T00:34:53.971Z,11.27
2018-09-22T00:35:53.943Z,11.21
2018-09-22T00:36:53.910Z,11.14
2018-09-22T00:37:53.882Z,11.20
2018-09-22T00:38:53.853Z,11.20
2018-09-22T00:39:53.831Z,11.20
2018-09-22T00:40:53.792Z,11.21
2018-09-22T00:41:53.764Z,11.24
2018-09-22T00:42:53.733Z,11.14
2018-09-22T00:43:53.704Z,11.16
2018-09-22T00:44:53.676Z,11.16
2018-09-22T00:45:53.647Z,11.09
2018-09-22T00:46:53.615Z,11.06
2018-09-22T00:47:53.585Z,11.11
2018-09-22T00:48:53.554Z,11.06
2018-09-22T00:49:53.525Z,11.01
2018-09-22T00:50:53.495Z,10.99
2018-09-22T00:51:53.465Z,10.96
2018-09-22T00:52:53.435Z,10.99
2018-09-22T00:53:53.406Z,10.98
2018-09-22T00:54:53.376Z,10.99
2018-09-22T00:55:53.345Z,10.98
2018-09-22T00:56:53.316Z,10.99
2018-09-22T00:57:53.287Z,10.99
2018-09-22T00:58:53.259Z,10.98
2018-09-22T00:59:53.228Z,10.94
2018-09-22T01:00:53.196Z,10.96
2018-09-22T01:01:53.167Z,10.96
2018-09-22T01:02:53.138Z,10.98
2018-09-22T01:03:53.108Z,10.95
2018-09-22T01:04:53.077Z,10.81
2018-09-22T01:05:53.049Z,10.88
2018-09-22T01:06:53.019Z,10.84
2018-09-22T01:07:52.989Z,10.80
2018-09-22T01:08:52.956Z,10.89
2018-09-22T01:09:52.928Z,10.83
2018-09-22T01:10:52.898Z,10.89
2018-09-22T01:11:52.869Z,10.92
2018-09-22T01:12:52.838Z,10.88
2018-09-22T01:13:52.808Z,10.84
2018-09-22T01:14:52.780Z,10.80
2018-09-22T01:15:52.768Z,10.94
2018-09-22T01:16:52.719Z,10.91
2018-09-22T01:17:53.668Z,10.96
2018-09-22T01:18:52.660Z,10.86
2018-09-22T01:19:52.630Z,10.84
2018-09-22T01:20:52.599Z,10.89
2018-09-22T01:21:52.569Z,10.91
2018-09-22T01:22:52.539Z,10.91
2018-09-22T01:23:52.509Z,10.94
2018-09-22T01:24:52.480Z,10.89
2018-09-22T01:25:52.450Z,10.91
2018-09-22T01:26:52.421Z,10.91
2018-09-22T01:27:52.390Z,10.84
2018-09-22T01:28:52.363Z,10.86
2018-09-22T01:29:52.330Z,10.83
2018-09-22T01:30:52.300Z,10.89
2018-09-22T01:31:52.270Z,10.84
2018-09-22T01:32:52.239Z,10.81
2018-09-22T01:33:52.210Z,10.80
2018-09-22T01:34:52.180Z,10.83
2018-09-22T01:35:52.150Z,10.66
2018-09-22T01:36:52.121Z,10.83
2018-09-22T01:37:52.090Z,10.80
2018-09-22T01:38:52.059Z,10.66
2018-09-22T01:39:52.032Z,10.66
2018-09-22T01:40:51.999Z,10.74
2018-09-22T01:41:51.970Z,10.71
2018-09-22T01:42:51.941Z,10.81
2018-09-22T01:43:51.912Z,10.70
2018-09-22T01:44:51.883Z,10.80
2018-09-22T01:45:51.853Z,10.91
2018-09-22T01:46:51.820Z,10.84
2018-09-22T01:47:51.790Z,10.80
2018-09-22T01:48:51.760Z,10.70
2018-09-22T01:49:51.732Z,10.78
2018-09-22T01:50:51.699Z,10.74
2018-09-22T01:51:51.669Z,10.74
2018-09-22T01:52:51.639Z,10.74
2018-09-22T01:53:51.610Z,10.74
2018-09-22T01:54:51.583Z,10.74
2018-09-22T01:55:51.552Z,10.66
2018-09-22T01:56:51.522Z,10.56
2018-09-22T01:57:52.173Z,10.58
2018-09-22T01:58:51.461Z,10.63
2018-09-22T01:59:51.435Z,10.66
2018-09-22T02:00:51.400Z,10.60
2018-09-22T02:01:51.371Z,10.56
2018-09-22T02:02:51.341Z,10.59
2018-09-22T02:03:51.311Z,10.53
2018-09-22T02:04:51.281Z,10.52
2018-09-22T02:05:51.250Z,10.52
2018-09-22T02:06:51.221Z,10.53
2018-09-22T02:07:51.191Z,10.60
2018-09-22T02:08:51.162Z,10.55
2018-09-22T02:09:51.134Z,10.59
2018-09-22T02:10:51.101Z,10.42
2018-09-22T02:11:51.071Z,10.55
2018-09-22T02:12:51.041Z,10.58
2018-09-22T02:13:51.015Z,10.63
2018-09-22T02:14:50.982Z,10.58
2018-09-22T02:15:50.952Z,10.63
2018-09-22T02:16:50.919Z,10.56
2018-09-22T02:17:50.892Z,10.56
2018-09-22T02:18:50.861Z,10.53
2018-09-22T02:19:50.831Z,10.51
2018-09-22T02:20:50.800Z,10.59
2018-09-22T02:21:50.769Z,10.60
2018-09-22T02:22:50.740Z,10.60
2018-09-22T02:23:50.711Z,10.62
2018-09-22T02:24:50.684Z,10.55
2018-09-22T02:25:50.652Z,10.63
2018-09-22T02:26:50.621Z,10.62
2018-09-22T02:27:50.589Z,10.65
2018-09-22T02:28:50.558Z,10.60
2018-09-22T02:29:50.530Z,10.66
2018-09-22T02:30:50.503Z,10.68
2018-09-22T02:31:50.471Z,10.63
2018-09-22T02:32:50.440Z,10.63
2018-09-22T02:33:50.409Z,10.65
2018-09-22T02:34:50.379Z,10.71
2018-09-22T02:35:50.351Z,10.65
2018-09-22T02:36:50.320Z,10.58
2018-09-22T02:37:50.289Z,10.53
2018-09-22T02:38:51.180Z,10.51
2018-09-22T02:39:50.228Z,10.62
2018-09-22T02:40:50.198Z,10.52
2018-09-22T02:41:50.168Z,10.47
2018-09-22T02:42:50.142Z,10.44
2018-09-22T02:43:50.110Z,10.46
2018-09-22T02:44:50.081Z,10.39
2018-09-22T02:45:50.048Z,10.44
2018-09-22T02:46:50.018Z,10.42
2018-09-22T02:47:49.989Z,10.46
2018-09-22T02:48:49.959Z,10.43
2018-09-22T02:49:49.927Z,10.44
2018-09-22T02:50:49.901Z,10.42
2018-09-22T02:51:49.868Z,10.43
2018-09-22T02:52:49.838Z,10.55
2018-09-22T02:53:49.808Z,10.53
2018-09-22T02:54:49.777Z,10.63
2018-09-22T02:55:49.748Z,10.52
2018-09-22T02:56:49.719Z,10.58
2018-09-22T02:57:49.688Z,10.47
2018-09-22T02:58:49.660Z,10.59
2018-09-22T02:59:49.627Z,10.55
2018-09-22T03:00:49.597Z,10.63
2018-09-22T03:01:49.568Z,10.71
2018-09-22T03:02:49.537Z,10.65
2018-09-22T03:03:49.506Z,10.71
2018-09-22T03:04:49.478Z,10.66
2018-09-22T03:05:49.446Z,10.62
2018-09-22T03:06:49.474Z,10.65
2018-09-22T03:07:49.387Z,10.62
2018-09-22T03:08:50.232Z,10.63
2018-09-22T03:09:49.326Z,10.55
2018-09-22T03:10:49.296Z,10.66
2018-09-22T03:11:49.269Z,10.60
2018-09-22T03:12:49.233Z,10.55
2018-09-22T03:13:49.206Z,10.56
2018-09-22T03:14:49.199Z,10.60
2018-09-22T03:15:49.147Z,10.63
2018-09-22T03:16:49.116Z,10.56
2018-09-22T03:17:49.095Z,10.59
2018-09-22T03:18:49.057Z,10.73
2018-09-22T03:19:49.033Z,10.78
2018-09-22T03:20:48.996Z,10.77
2018-09-22T03:21:48.969Z,10.83
2018-09-22T03:22:48.935Z,10.88
2018-09-22T03:23:48.906Z,10.86
2018-09-22T03:24:48.874Z,10.80
2018-09-22T03:25:48.845Z,10.78
2018-09-22T03:26:48.815Z,10.89
2018-09-22T03:27:48.786Z,10.81
2018-09-22T03:28:48.757Z,10.80
2018-09-22T03:29:48.724Z,10.84
2018-09-22T03:30:48.697Z,10.94
2018-09-22T03:31:48.670Z,10.94
2018-09-22T03:32:48.636Z,10.86
2018-09-22T03:33:48.606Z,10.92
2018-09-22T03:34:48.577Z,10.96
2018-09-22T03:35:48.547Z,11.01
2018-09-22T03:36:48.516Z,11.02
2018-09-22T03:37:48.490Z,10.95
2018-09-22T03:38:48.457Z,10.96
2018-09-22T03:39:48.428Z,10.96
2018-09-22T03:40:48.398Z,10.99
2018-09-22T03:41:48.369Z,10.98
2018-09-22T03:42:48.340Z,11.03
2018-09-22T03:43:48.309Z,11.13
2018-09-22T03:44:48.280Z,11.10
2018-09-22T03:45:48.249Z,11.06
2018-09-22T03:46:48.219Z,11.13
2018-09-22T03:47:48.191Z,11.14
2018-09-22T03:48:48.159Z,11.16
2018-09-22T03:49:48.129Z,11.20
2018-09-22T03:50:48.100Z,11.20
2018-09-22T03:51:48.071Z,11.27
2018-09-22T03:52:48.043Z,11.19
2018-09-22T03:53:48.010Z,11.16
2018-09-22T03:54:47.981Z,11.25
2018-09-22T03:55:47.952Z,11.38
2018-09-22T03:56:47.922Z,11.32
2018-09-22T03:57:47.891Z,11.27
2018-09-22T03:58:47.862Z,11.25
2018-09-22T03:59:47.832Z,11.24
2018-09-22T04:00:47.803Z,11.25
2018-09-22T04:01:47.774Z,11.39
2018-09-22T04:02:47.745Z,11.36
2018-09-22T04:03:47.715Z,11.36
2018-09-22T04:04:47.686Z,11.28
2018-09-22T04:05:47.655Z,11.35
2018-09-22T04:06:47.626Z,11.31
2018-09-22T04:07:47.596Z,11.47
2018-09-22T04:08:47.566Z,11.41
2018-09-22T04:09:47.538Z,11.46
2018-09-22T04:10:47.508Z,11.47
2018-09-22T04:11:47.520Z,11.44
2018-09-22T04:12:47.448Z,11.50
2018-09-22T04:13:47.421Z,11.49
2018-09-22T04:14:47.392Z,11.53
2018-09-22T04:15:47.360Z,11.57
2018-09-22T04:16:47.330Z,11.50
2018-09-22T04:17:47.302Z,11.56
2018-09-22T04:18:47.273Z,11.53
2018-09-22T04:19:47.245Z,11.52
2018-09-22T04:20:47.213Z,11.53
2018-09-22T04:21:47.186Z,11.59
2018-09-22T04:22:47.163Z,11.65
2018-09-22T04:23:47.125Z,11.59
2018-09-22T04:24:47.094Z,11.67
2018-09-22T04:25:47.065Z,11.57
2018-09-22T04:26:47.039Z,11.67
2018-09-22T04:27:47.008Z,11.72
2018-09-22T04:28:46.977Z,11.77
2018-09-22T04:29:46.948Z,11.65
2018-09-22T04:30:46.920Z,11.65
2018-09-22T04:31:46.891Z,11.61
2018-09-22T04:32:46.862Z,11.70
2018-09-22T04:33:46.832Z,11.62
2018-09-22T04:34:46.801Z,11.71
2018-09-22T04:35:46.774Z,11.64
2018-09-22T04:36:46.743Z,11.70
2018-09-22T04:37:46.713Z,11.67
2018-09-22T04:38:46.685Z,11.72
2018-09-22T04:39:46.656Z,11.77
2018-09-22T04:40:46.640Z,11.71
2018-09-22T04:41:46.599Z,11.75
2018-09-22T04:42:46.568Z,11.83
2018-09-22T04:43:46.538Z,11.80
2018-09-22T04:44:47.142Z,11.77
2018-09-22T04:45:46.479Z,11.83
2018-09-22T04:46:46.450Z,11.80
2018-09-22T04:47:46.422Z,11.86
2018-09-22T04:48:46.391Z,11.89
2018-09-22T04:49:46.366Z,11.89
2018-09-22T04:50:46.333Z,11.97
2018-09-22T04:51:46.305Z,11.97
2018-09-22T04:52:46.273Z,12.02
2018-09-22T04:53:46.245Z,11.94
2018-09-22T04:54:46.218Z,11.89
2018-09-22T04:55:46.185Z,11.94
2018-09-22T04:56:46.158Z,12.02
2018-09-22T04:57:46.127Z,11.93
2018-09-22T04:58:46.101Z,11.93
2018-09-22T04:59:46.070Z,11.90
2018-09-22T05:00:53.485Z,11.90
2018-09-22T05:02:39.171Z,11.96
2018-09-22T05:03:39.111Z,11.96
2018-09-22T05:05:31.918Z,11.93
2018-09-22T05:06:31.882Z,11.93
2018-09-22T05:08:25.705Z,11.90
2018-09-22T05:09:25.654Z,12.05
2018-09-22T05:11:18.963Z,12.06
2018-09-22T05:12:18.927Z,11.97
2018-09-22T05:14:12.245Z,12.08
2018-09-22T05:15:12.195Z,12.08
2018-09-22T05:17:05.110Z,12.06
2018-09-22T05:18:04.968Z,12.05
2018-09-22T05:19:57.773Z,12.05
2018-09-22T05:20:57.741Z,12.04
2018-09-22T05:22:50.578Z,11.93
2018-09-22T05:23:50.511Z,12.09
2018-09-22T05:25:43.319Z,12.08
2018-09-22T05:26:43.287Z,12.09
2018-09-22T05:28:36.117Z,12.12
2018-09-22T05:29:36.056Z,12.06
2018-09-22T05:31:28.862Z,12.09
2018-09-22T05:32:28.829Z,12.12
2018-09-22T05:34:22.443Z,12.08
2018-09-22T05:35:22.401Z,12.20
2018-09-22T05:37:15.192Z,12.05
2018-09-22T05:38:15.158Z,12.20
2018-09-22T05:40:07.978Z,12.16
2018-09-22T05:41:07.946Z,12.23
2018-09-22T05:42:07.902Z,12.20
2018-09-22T05:43:07.877Z,12.26
2018-09-22T05:44:07.846Z,12.26
2018-09-22T05:45:07.814Z,12.33
2018-09-22T05:46:07.791Z,12.39
2018-09-22T05:47:07.756Z,12.41
2018-09-22T05:48:07.728Z,12.37
2018-09-22T05:49:07.700Z,12.42
2018-09-22T05:50:07.670Z,12.37
2018-09-22T05:51:07.642Z,12.33
2018-09-22T05:52:07.614Z,12.34
2018-09-22T05:53:07.586Z,12.31
2018-09-22T05:54:07.554Z,12.34
2018-09-22T05:55:07.526Z,12.34
2018-09-22T05:56:07.497Z,12.37
2018-09-22T05:57:07.468Z,12.37
2018-09-22T05:58:07.482Z,12.39
2018-09-22T05:59:07.413Z,12.26
2018-09-22T06:00:07.382Z,12.27
2018-09-22T06:01:07.352Z,12.33
2018-09-22T06:02:07.323Z,12.26
2018-09-22T06:03:07.295Z,12.38
2018-09-22T06:04:07.271Z,12.27
2018-09-22T06:05:07.237Z,12.38
2018-09-22T06:06:07.209Z,12.38
2018-09-22T06:07:07.183Z,12.38
2018-09-22T06:08:07.151Z,12.38
2018-09-22T06:09:07.122Z,12.34
2018-09-22T06:10:07.093Z,12.37
2018-09-22T06:11:07.066Z,12.37
2018-09-22T06:12:07.039Z,12.41
2018-09-22T06:13:07.008Z,12.31
2018-09-22T06:14:06.981Z,12.41
2018-09-22T06:15:06.948Z,12.41
2018-09-22T06:16:06.922Z,12.34
2018-09-22T06:17:06.892Z,12.54
2018-09-22T06:18:06.863Z,12.52
2018-09-22T06:19:06.838Z,12.63
2018-09-22T06:20:06.806Z,12.64
2018-09-22T06:21:06.777Z,12.62
2018-09-22T06:22:06.745Z,12.49
2018-09-22T06:23:06.739Z,12.59
2018-09-22T06:24:06.692Z,12.52
2018-09-22T06:25:06.657Z,12.59
2018-09-22T06:26:06.628Z,12.62
2018-09-22T06:27:06.600Z,12.69
2018-09-22T06:28:06.572Z,12.63
2018-09-22T06:29:06.541Z,12.49
2018-09-22T06:30:06.515Z,12.45
2018-09-22T06:31:06.486Z,12.49
2018-09-22T06:32:06.457Z,12.59
2018-09-22T06:33:06.427Z,12.63
2018-09-22T06:34:06.399Z,12.78
2018-09-22T06:35:06.370Z,12.79
2018-09-22T06:36:06.344Z,12.78
2018-09-22T06:37:06.312Z,12.87
2018-09-22T06:38:06.284Z,12.82
2018-09-22T06:39:06.256Z,12.77
2018-09-22T06:40:06.239Z,12.63
2018-09-22T06:41:06.200Z,12.62
2018-09-22T06:42:07.066Z,12.60
2018-09-22T06:43:06.142Z,12.63
2018-09-22T06:44:06.114Z,12.62
2018-09-22T06:45:06.083Z,12.48
2018-09-22T06:46:06.112Z,12.63
2018-09-22T06:47:06.029Z,12.70
2018-09-22T06:48:06.001Z,12.67
2018-09-22T06:49:05.969Z,12.70
2018-09-22T06:50:05.942Z,12.81
2018-09-22T06:51:05.915Z,12.82
2018-09-22T06:52:05.885Z,13.06
2018-09-22T06:53:05.857Z,13.07
2018-09-22T06:54:05.830Z,13.07
2018-09-22T06:55:05.801Z,13.07
2018-09-22T06:56:05.773Z,13.07
2018-09-22T06:57:05.743Z,12.95
2018-09-22T06:58:05.716Z,12.93
2018-09-22T06:59:05.688Z,12.92
2018-09-22T07:00:05.663Z,12.77
2018-09-22T07:01:05.630Z,12.74
2018-09-22T07:02:05.602Z,12.93
2018-09-22T07:03:05.575Z,12.95
2018-09-22T07:04:05.552Z,12.93
2018-09-22T07:05:05.517Z,12.92
2018-09-22T07:06:05.491Z,12.85
2018-09-22T07:07:05.463Z,13.09
2018-09-22T07:08:05.433Z,13.07
2018-09-22T07:09:05.407Z,13.21
2018-09-22T07:10:05.377Z,13.24
2018-09-22T07:11:05.349Z,13.17
2018-09-22T07:12:05.321Z,13.22
2018-09-22T07:13:05.293Z,13.27
2018-09-22T07:14:05.265Z,13.21
2018-09-22T07:15:05.240Z,13.06
2018-09-22T07:16:05.208Z,12.88
2018-09-22T07:17:05.181Z,13.04
2018-09-22T07:18:05.154Z,12.85
2018-09-22T07:19:05.126Z,13.07
2018-09-22T07:20:05.098Z,13.18
2018-09-22T07:21:05.066Z,13.17
2018-09-22T07:22:05.041Z,13.17
2018-09-22T07:23:05.014Z,13.27
2018-09-22T07:24:04.986Z,13.36
2018-09-22T07:25:04.956Z,13.33
2018-09-22T07:26:04.948Z,13.33
2018-09-22T07:27:04.902Z,13.36
2018-09-22T07:28:04.873Z,13.36
2018-09-22T07:29:04.846Z,13.32
2018-09-22T07:30:04.819Z,13.33
2018-09-22T07:31:04.788Z,13.43
2018-09-22T07:32:04.762Z,13.47
2018-09-22T07:33:04.744Z,13.49
2018-09-22T07:34:04.704Z,13.56
2018-09-22T07:35:04.677Z,13.49
2018-09-22T07:36:04.652Z,13.59
2018-09-22T07:37:04.620Z,13.63
2018-09-22T07:38:04.593Z,13.73
2018-09-22T07:39:04.567Z,13.69
2018-09-22T07:40:04.537Z,13.83
2018-09-22T07:41:04.510Z,13.79
2018-09-22T07:42:04.482Z,13.94
2018-09-22T07:43:04.455Z,13.89
2018-09-22T07:44:04.428Z,13.81
2018-09-22T07:45:04.398Z,13.94
2018-09-22T07:46:04.377Z,14.02
2018-09-22T07:47:04.346Z,14.10
2018-09-22T07:48:04.322Z,14.19
2018-09-22T07:49:04.289Z,14.25
2018-09-22T07:50:04.260Z,14.27
2018-09-22T07:51:04.234Z,14.20
2018-09-22T07:52:04.207Z,14.17
2018-09-22T07:53:04.180Z,14.21
2018-09-22T07:54:04.152Z,14.01
2018-09-22T07:55:04.125Z,14.16
2018-09-22T07:56:04.097Z,14.10
2018-09-22T07:57:04.074Z,14.24
2018-09-22T07:58:04.044Z,14.27
2018-09-22T07:59:04.018Z,14.34
2018-09-22T08:00:03.992Z,14.37
2018-09-22T08:01:03.963Z,14.32
2018-09-22T08:02:03.934Z,14.37
2018-09-22T08:03:03.906Z,14.43
2018-09-22T08:04:03.881Z,14.47
2018-09-22T08:05:03.854Z,14.29
2018-09-22T08:06:03.827Z,14.35
2018-09-22T08:07:03.798Z,14.38
2018-09-22T08:08:03.776Z,14.37
2018-09-22T08:09:03.743Z,14.43
2018-09-22T08:10:03.716Z,14.31
2018-09-22T08:11:03.691Z,14.29
2018-09-22T08:12:03.664Z,14.29
2018-09-22T08:13:03.641Z,14.28
2018-09-22T08:14:03.611Z,14.29
2018-09-22T08:15:03.583Z,14.25
2018-09-22T08:16:03.557Z,14.39
2018-09-22T08:17:03.527Z,14.57
2018-09-22T08:18:03.501Z,14.69
2018-09-22T08:19:03.474Z,14.69
2018-09-22T08:20:03.446Z,14.71
2018-09-22T08:21:03.421Z,14.75
2018-09-22T08:22:03.396Z,14.91
2018-09-22T08:23:03.369Z,15.17
2018-09-22T08:24:03.341Z,15.35
2018-09-22T08:25:03.320Z,15.41
2018-09-22T08:26:03.287Z,15.54
2018-09-22T08:27:03.261Z,15.49
2018-09-22T08:28:03.234Z,15.13
2018-09-22T08:29:03.208Z,15.13
2018-09-22T08:30:03.183Z,15.02
2018-09-22T08:31:03.156Z,15.15
2018-09-22T08:32:03.129Z,15.31
2018-09-22T08:33:03.103Z,15.24
2018-09-22T08:34:03.075Z,15.21
2018-09-22T08:35:03.050Z,15.19
2018-09-22T08:36:03.092Z,15.28
2018-09-22T08:37:03.125Z,15.33
2018-09-22T08:38:02.973Z,15.33
2018-09-22T08:39:02.947Z,15.38
2018-09-22T08:40:02.920Z,15.21
2018-09-22T08:41:02.894Z,15.09
2018-09-22T08:42:02.866Z,15.13
2018-09-22T08:43:02.841Z,15.13
2018-09-22T08:44:02.880Z,15.23
2018-09-22T08:45:02.787Z,15.26
2018-09-22T08:46:02.763Z,15.31
2018-09-22T08:47:02.737Z,15.30
2018-09-22T08:48:02.712Z,15.45
2018-09-22T08:49:02.684Z,15.64
2018-09-22T08:50:02.703Z,15.51
2018-09-22T08:51:02.646Z,15.60
2018-09-22T08:52:02.608Z,15.64
2018-09-22T08:53:03.089Z,15.75
2018-09-22T08:54:02.556Z,15.94
2018-09-22T08:55:02.533Z,16.01
2018-09-22T08:56:02.504Z,16.07
2018-09-22T08:57:02.478Z,15.93
2018-09-22T08:58:02.453Z,15.93
2018-09-22T08:59:02.427Z,15.99
2018-09-22T09:00:02.406Z,15.96
2018-09-22T09:01:02.375Z,15.79
2018-09-22T09:02:02.352Z,15.96
2018-09-22T09:03:02.325Z,16.07
2018-09-22T09:04:02.301Z,16.31
2018-09-22T09:05:02.331Z,16.26
2018-09-22T09:06:02.250Z,16.15
2018-09-22T09:07:02.223Z,16.34
2018-09-22T09:08:02.200Z,16.26
2018-09-22T09:09:02.173Z,15.97
2018-09-22T09:10:02.147Z,16.15
2018-09-22T09:11:02.122Z,16.23
2018-09-22T09:12:02.099Z,15.97
2018-09-22T09:13:02.072Z,16.03
2018-09-22T09:14:02.055Z,15.93
2018-09-22T09:15:02.024Z,15.70
2018-09-22T09:16:01.998Z,15.68
2018-09-22T09:17:02.029Z,15.75
2018-09-22T09:18:01.947Z,15.72
2018-09-22T09:19:01.921Z,15.75
2018-09-22T09:20:01.899Z,16.00
2018-09-22T09:21:01.871Z,16.06
2018-09-22T09:22:01.851Z,15.99
2018-09-22T09:23:01.822Z,15.99
2018-09-22T09:24:01.797Z,15.96
2018-09-22T09:25:01.771Z,16.09
2018-09-22T09:26:01.747Z,15.92
2018-09-22T09:27:01.722Z,15.92
2018-09-22T09:28:01.697Z,15.89
2018-09-22T09:29:01.706Z,15.96
2018-09-22T09:30:01.649Z,16.00
2018-09-22T09:31:01.618Z,15.85
2018-09-22T09:32:01.596Z,15.75
2018-09-22T09:33:01.570Z,15.74
2018-09-22T09:34:01.544Z,16.03
2018-09-22T09:35:01.521Z,16.42
2018-09-22T09:36:01.494Z,16.44
2018-09-22T09:37:01.468Z,16.59
2018-09-22T09:38:01.451Z,16.60
2018-09-22T09:39:01.420Z,16.48
2018-09-22T09:40:01.396Z,16.60
2018-09-22T09:41:01.368Z,16.70
2018-09-22T09:42:01.343Z,16.78
2018-09-22T09:43:01.319Z,16.90
2018-09-22T09:44:01.299Z,16.88
2018-09-22T09:45:01.270Z,17.03
2018-09-22T09:46:01.269Z,17.04
2018-09-22T09:47:01.219Z,17.15
2018-09-22T09:48:01.196Z,17.07
2018-09-22T09:49:01.170Z,17.03
2018-09-22T09:50:01.145Z,17.07
2018-09-22T09:51:01.122Z,17.17
2018-09-22T09:52:01.098Z,17.23
2018-09-22T09:53:01.073Z,17.08
2018-09-22T09:54:01.059Z,16.96
2018-09-22T09:55:01.088Z,16.77
2018-09-22T09:56:00.999Z,16.92
2018-09-22T09:57:00.977Z,16.99
2018-09-22T09:58:00.950Z,17.06
2018-09-22T09:59:00.928Z,16.98
2018-09-22T10:00:00.907Z,16.93
2018-09-22T10:01:00.879Z,17.03
2018-09-22T10:02:00.854Z,17.20
2018-09-22T10:03:00.830Z,17.23
2018-09-22T10:04:00.806Z,17.10
2018-09-22T10:05:00.781Z,16.81
2018-09-22T10:06:00.758Z,16.60
2018-09-22T10:07:00.733Z,16.30
2018-09-22T10:08:00.710Z,16.48
2018-09-22T10:09:00.683Z,16.58
2018-09-22T10:10:00.660Z,16.83
2018-09-22T10:11:00.634Z,16.96
2018-09-22T10:12:00.611Z,17.13
2018-09-22T10:13:00.586Z,17.06
2018-09-22T10:14:00.562Z,17.20
2018-09-22T10:15:00.540Z,17.26
2018-09-22T10:16:00.514Z,17.22
2018-09-22T10:17:00.488Z,17.51
2018-09-22T10:18:00.465Z,17.73
2018-09-22T10:19:00.442Z,17.64
2018-09-22T10:20:00.423Z,17.73
2018-09-22T10:21:00.391Z,17.47
2018-09-22T10:22:00.367Z,17.15
2018-09-22T10:23:00.342Z,17.07
2018-09-22T10:24:00.318Z,16.95
2018-09-22T10:25:00.294Z,16.73
2018-09-22T10:26:00.270Z,16.63
2018-09-22T10:27:00.245Z,16.99
2018-09-22T10:28:00.274Z,16.96
2018-09-22T10:29:00.201Z,17.07
2018-09-22T10:30:00.174Z,17.26
2018-09-22T10:31:00.148Z,17.36
2018-09-22T10:32:00.125Z,17.76
2018-09-22T10:33:00.100Z,17.73
2018-09-22T10:34:00.075Z,17.55
2018-09-22T10:35:00.052Z,17.46
2018-09-22T10:36:00.027Z,17.08
2018-09-22T10:37:00.002Z,17.03
2018-09-22T10:37:59.980Z,16.93
2018-09-22T10:38:59.954Z,16.95
2018-09-22T10:39:59.930Z,17.11
2018-09-22T10:40:59.905Z,17.00
2018-09-22T10:41:59.880Z,17.22
2018-09-22T10:42:59.855Z,17.20
2018-09-22T10:43:59.833Z,17.18
2018-09-22T10:44:59.808Z,17.08
2018-09-22T10:45:59.788Z,17.00
2018-09-22T10:46:59.760Z,17.03
2018-09-22T10:47:59.738Z,17.14
2018-09-22T10:48:59.710Z,17.11
2018-09-22T10:49:59.687Z,16.92
2018-09-22T10:50:59.663Z,16.73
2018-09-22T10:51:59.641Z,16.88
2018-09-22T10:52:59.623Z,17.26
2018-09-22T10:53:59.588Z,17.28
2018-09-22T10:54:59.564Z,17.41
2018-09-22T10:55:59.539Z,17.28
2018-09-22T10:56:59.515Z,17.51
2018-09-22T10:57:59.490Z,17.48
2018-09-22T10:58:59.467Z,17.50
2018-09-22T10:59:59.444Z,17.81
2018-09-22T11:00:59.416Z,17.79
2018-09-22T11:01:59.391Z,17.81
2018-09-22T11:02:59.368Z,17.66
2018-09-22T11:03:59.344Z,17.47
2018-09-22T11:04:59.321Z,17.47
2018-09-22T11:05:59.294Z,17.48
2018-09-22T11:06:59.272Z,17.57
2018-09-22T11:07:59.247Z,17.84
2018-09-22T11:08:59.223Z,17.55
2018-09-22T11:09:59.200Z,17.79
2018-09-22T11:10:59.176Z,18.06
2018-09-22T11:11:59.149Z,18.15
2018-09-22T11:12:59.125Z,18.17
2018-09-22T11:13:59.161Z,18.27
2018-09-22T11:14:59.079Z,18.47
2018-09-22T11:15:59.054Z,18.46
2018-09-22T11:16:59.033Z,18.37
2018-09-22T11:17:59.009Z,18.43
2018-09-22T11:18:58.983Z,18.46
2018-09-22T11:19:58.962Z,18.43
2018-09-22T11:20:58.935Z,18.58
2018-09-22T11:21:58.913Z,18.59
2018-09-22T11:22:58.889Z,18.68
2018-09-22T11:23:58.866Z,18.61
2018-09-22T11:24:58.849Z,18.34
2018-09-22T11:25:58.820Z,18.29
2018-09-22T11:26:58.815Z,18.27
2018-09-22T11:27:58.778Z,18.13
2018-09-22T11:28:58.749Z,17.87
2018-09-22T11:29:58.728Z,17.81
2018-09-22T11:30:58.702Z,17.66
2018-09-22T11:31:58.681Z,17.55
2018-09-22T11:32:58.654Z,17.53
2018-09-22T11:33:58.633Z,17.40
2018-09-22T11:34:58.610Z,17.46
2018-09-22T11:35:58.588Z,17.55
2018-09-22T11:36:58.564Z,17.84
2018-09-22T11:37:58.541Z,18.04
2018-09-22T11:38:58.515Z,18.12
2018-09-22T11:39:58.491Z,18.06
2018-09-22T11:40:58.469Z,18.06
2018-09-22T11:41:58.444Z,17.94
2018-09-22T11:42:58.419Z,17.71
2018-09-22T11:43:58.397Z,17.47
2018-09-22T11:44:58.374Z,17.30
2018-09-22T11:45:58.347Z,17.26
2018-09-22T11:46:58.326Z,17.15
2018-09-22T11:47:58.300Z,17.28
2018-09-22T11:48:58.276Z,17.48
2018-09-22T11:49:58.253Z,17.69
2018-09-22T11:50:58.228Z,17.79
2018-09-22T11:51:59.127Z,17.88
2018-09-22T11:52:58.178Z,17.64
2018-09-22T11:53:58.157Z,17.88
2018-09-22T11:54:58.130Z,18.04
2018-09-22T11:55:58.108Z,18.12
2018-09-22T11:56:58.086Z,17.97
2018-09-22T11:57:58.057Z,17.84
2018-09-22T11:58:58.033Z,17.63
2018-09-22T11:59:58.018Z,17.82
2018-09-22T12:00:57.984Z,17.79
2018-09-22T12:01:58.012Z,17.85
2018-09-22T12:02:57.937Z,18.17
2018-09-22T12:03:57.912Z,18.21
2018-09-22T12:04:57.886Z,18.19
2018-09-22T12:05:57.877Z,18.29
2018-09-22T12:06:57.838Z,18.36
2018-09-22T12:07:57.815Z,18.49
2018-09-22T12:08:57.789Z,18.54
2018-09-22T12:09:57.766Z,18.62
2018-09-22T12:10:57.743Z,18.62
2018-09-22T12:11:57.718Z,18.55
2018-09-22T12:12:57.694Z,18.40
2018-09-22T12:13:57.729Z,18.34
2018-09-22T12:14:57.647Z,18.06
2018-09-22T12:15:57.624Z,18.09
2018-09-22T12:16:57.598Z,18.12
2018-09-22T12:17:57.576Z,18.18
2018-09-22T12:18:57.554Z,18.15
2018-09-22T12:19:57.528Z,18.10
2018-09-22T12:20:57.502Z,18.06
2018-09-22T12:21:57.480Z,18.10
2018-09-22T12:22:57.459Z,18.12
2018-09-22T12:23:57.431Z,18.18
2018-09-22T12:24:57.417Z,18.24
2018-09-22T12:25:57.384Z,18.43
2018-09-22T12:26:57.360Z,18.49
2018-09-22T12:27:57.336Z,18.64
2018-09-22T12:28:57.312Z,18.67
2018-09-22T12:29:57.292Z,18.68
2018-09-22T12:30:57.265Z,18.61
2018-09-22T12:31:57.244Z,18.54
2018-09-22T12:32:57.216Z,18.70
2018-09-22T12:33:57.193Z,18.77
2018-09-22T12:34:57.170Z,18.90
2018-09-22T12:35:57.147Z,18.92
2018-09-22T12:36:57.123Z,18.91
2018-09-22T12:37:57.099Z,18.62
2018-09-22T12:38:57.077Z,18.59
2018-09-22T12:39:57.053Z,18.47
2018-09-22T12:40:57.030Z,18.68
2018-09-22T12:41:57.004Z,18.68
2018-09-22T12:42:56.986Z,18.49
2018-09-22T12:43:56.960Z,18.39
2018-09-22T12:44:56.935Z,18.43
2018-09-22T12:45:56.965Z,18.43
2018-09-22T12:46:56.931Z,18.36
2018-09-22T12:47:56.867Z,18.36
2018-09-22T12:48:56.845Z,18.36
2018-09-22T12:49:56.819Z,18.27
2018-09-22T12:50:56.794Z,18.31
2018-09-22T12:51:56.772Z,18.33
2018-09-22T12:52:56.747Z,18.22
2018-09-22T12:53:56.723Z,18.29
2018-09-22T12:54:56.700Z,18.36
2018-09-22T12:55:56.677Z,18.28
2018-09-22T12:56:56.651Z,18.15
2018-09-22T12:57:56.629Z,18.00
2018-09-22T12:58:56.605Z,18.07
2018-09-22T12:59:56.583Z,18.06
2018-09-22T13:00:56.560Z,18.06
2018-09-22T13:01:56.533Z,18.09
2018-09-22T13:02:56.510Z,18.13
2018-09-22T13:03:56.487Z,17.97
2018-09-22T13:04:56.461Z,18.03